Aviation Digital Data Service (ADDS)

Output produced by METARs form (1207 UTC 24 March 2017)
found at http://www.aviationweather.gov/adds/metars/
 
HEAX 241100Z 05009KT 9999 SCT020 20/12 Q1017 NOSIG
TAF HEAX 241100Z 2412/2518 33010KT 9999 SCT020 
     TEMPO 2500/2506 VRB03KT 4000 BR NSC
       
HEBA 241100Z 33010KT 9999 FEW020 20/11 Q1018 NOSIG
TAF HEBA 241100Z 2412/2518 33012KT 9999 SCT020 
     TEMPO 2500/2506 VRB03KT 3000 BR NSC
       
HESN 241100Z 33007KT 6000 NSC 28/02 Q1011 NOSIG
TAF HESN 241100Z 2412/2518 35008G18KT CAVOK 
     TEMPO 2412/2415 3000 HZ NSC
       
HEAT 241100Z 33012KT CAVOK 22/09 Q1016 NOSIG
TAF HEAT 241100Z 2412/2518 33008G18KT CAVOK
       
HECA 241200Z 35006KT 6000 BKN025 23/09 Q1016 NOSIG
TAF HECA 241100Z 2412/2518 02010KT 9999 BKN025 
     PROB30 
     TEMPO 2500/2506 VRB03KT 4000 BR NSC
       
HEAR 241100Z 01006KT 9999 SCT025 21/11 Q1016 NOSIG
TAF HEAR 241100Z 2412/2518 01009KT 9999 SCT020
       
HEGN 241100Z 02018KT 4000 SA NSC 25/07 Q1012 NOSIG
TAF HEGN 241100Z 2412/2518 01015G25KT 6000 NSC 
     TEMPO 2412/2418 4000 SA
       
HELX 241100Z 30004KT 5000 HZ NSC 28/9 Q1012 NOSIG
TAF HELX 241100Z 2412/2518 32008G18KT 6000 NSC
       
HEMM 241100Z 35008KT 9999 FEW020 22/11 Q1019 NOSIG
TAF HEMM 241100Z 2412/2518 30012KT 9999 SCT020 
     TEMPO 2500/2506 VRB03KT 6000 NSC
       
HEPS 241100Z 35003KT 9999 FEW025 20/15 Q1017 NOSIG
TAF HEPS 241100Z 2412/2518 01010KT 9999 SCT025
       
HESH 241100Z 03015KT 9999 FEW025 24/05 Q1011 NOSIG
TAF HESH 241100Z 2412/2518 03012G25KT 8000 NSC
       
TAF HETB 241100Z 2412/2518 04015KT CAVOK